• Join FlightAware (Why Join?)
  • Login
  • US Flag 
01:40PM EST


 

Airport Tracker/Info


-or-


 

Live Flight TrackerFlight Track Log ✈ AFL150 ✈ 22 Jul 2013 ✈ UUEE / SVO - MUHA / HAV

Flight Track Log - Related Links

Times and Time Zones

All times are in EDT time to prevent confusion due to time zone crossing. See the AFL150 flight status page for this flight to view local times or setup timezone preferences in your user account.

Time Position Orientation Groundspeed Altitude Reporting Facility
EDT Latitude Longitude Course Direction KTS MPH feet Rate Location/Type
06:31AM 55.9650 37.3720 255° West 182 209 1,800  Level FlightAware
06:31AM 55.9590 37.3320 255° West 172 198 3,100 2,220 Climbing FlightAware
06:31AM 55.9570 37.3160 257° West 175 201 3,300 1,500 Climbing FlightAware
06:32AM 55.9510 37.2770 255° West 180 207 4,000 1,380 Climbing FlightAware
06:32AM 55.9450 37.2330 256° West 196 226 4,600 900 Climbing FlightAware
06:33AM 55.9480 37.1600 274° West 249 287 5,100 1,200 Climbing FlightAware
06:33AM 55.9560 37.0950 282° West 270 311 6,000 2,040 Climbing FlightAware
06:34AM 55.9610 37.0520 282° West 273 314 6,800 2,520 Climbing FlightAware
06:34AM 55.9660 36.9960 279° West 276 318 7,900 2,400 Climbing FlightAware
06:35AM 55.9720 36.9270 279° West 285 328 9,000 2,220 Climbing FlightAware
06:35AM 55.9750 36.8930 279° West 286 329 9,600 1,740 Climbing FlightAware
06:36AM 55.9830 36.7960 278° West 314 361 10,600 1,080 Climbing FlightAware
06:36AM 55.9760 36.6850 264° West 355 409 11,100 1,200 Climbing FlightAware
06:37AM 55.9900 36.5520 281° West 386 444 12,300 1,860 Climbing FlightAware
06:38AM 56.0080 36.4060 282° West 398 458 13,900 2,100 Climbing FlightAware
06:38AM 56.0240 36.2760 282° West 407 468 15,300 1,920 Climbing FlightAware
06:39AM 56.0380 36.1610 282° West 417 480 16,300 1,920 Climbing FlightAware
06:40AM 56.0550 36.0270 283° West 422 486 17,700 2,040 Climbing FlightAware
06:40AM 56.0740 35.8690 282° West 429 494 19,200 1,800 Climbing FlightAware
06:41AM 56.0860 35.7640 282° West 435 501 20,000 1,560 Climbing FlightAware
06:42AM 56.1050 35.6020 282° West 446 513 21,200 1,620 Climbing FlightAware
06:42AM 56.1220 35.4570 282° West 451 519 22,300 1,680 Climbing FlightAware
06:43AM 56.1370 35.3300 282° West 455 524 23,300 1,380 Climbing FlightAware
06:44AM 56.1560 35.1650 282° West 466 536 24,200 1,020 Climbing FlightAware
06:44AM 56.1730 35.0090 281° West 478 550 24,800 1,380 Climbing FlightAware
06:45AM 56.1900 34.8580 281° West 471 542 26,100 1,680 Climbing FlightAware
06:46AM 56.2090 34.6810 281° West 473 544 27,200 1,260 Climbing FlightAware
06:46AM 56.2260 34.5250 281° West 481 554 27,900 840 Climbing FlightAware
06:47AM 56.2450 34.3490 281° West 494 568 28,400 1,020 Climbing FlightAware
06:48AM 56.2600 34.2090 281° West 491 565 29,300 960 Climbing FlightAware
06:48AM 56.2770 34.0420 280° West 503 579 29,600 420 Climbing FlightAware
06:49AM 56.2940 33.8770 281° West 516 594 29,900 660 Climbing FlightAware
06:50AM 56.3180 33.6430 281° West 520 598 30,700 1,260 Climbing FlightAware
06:51AM 56.3360 33.4590 280° West 506 582 32,000 1,500 Climbing FlightAware
06:51AM 56.3540 33.2700 280° West 501 577 33,000 960 Climbing FlightAware
06:52AM 56.3700 33.1030 280° West 504 580 33,400 660 Climbing FlightAware
06:53AM 56.3860 32.9390 280° West 502 578 33,900 480 Climbing FlightAware
06:53AM 56.3990 32.7970 279° West 502 578 34,000 60 Climbing FlightAware
06:54AM 56.4160 32.6080 279° West 499 574 34,000  Level FlightAware
06:55AM 56.4290 32.4640 279° West 502 578 34,000  Level FlightAware
06:55AM 56.4440 32.3000 279° West 500 575 34,000  Level FlightAware
06:56AM 56.4580 32.1360 279° West 499 574 34,000  Level FlightAware
06:57AM 56.4750 31.9420 279° West 497 572 34,000  Level FlightAware
06:58AM 56.4890 31.7590 278° West 497 572 34,000  Level FlightAware
06:58AM 56.4990 31.6330 278° West 497 572 34,000  Level FlightAware
06:59AM 56.5120 31.4650 278° West 497 572 34,000  Level FlightAware
07:00AM 56.5220 31.3390 278° West 497 572 34,000  Level FlightAware
07:00AM 56.5320 31.2120 278° West 497 572 34,000  Level FlightAware
07:01AM 56.5450 31.0440 278° West 497 572 34,000  Level FlightAware
07:02AM 56.5540 30.9170 277° West 497 572 34,000  Level FlightAware
07:02AM 56.5640 30.7910 278° West 497 572 34,000  Level FlightAware
07:03AM 56.5800 30.5800 278° West 497 572 34,000  Level FlightAware
07:04AM 56.5900 30.4540 278° West 497 572 34,000  Level FlightAware
07:05AM 56.6030 30.2850 278° West 497 572 34,000  Level FlightAware
07:05AM 56.6130 30.1580 278° West 497 572 34,000  Level FlightAware
07:06AM 56.6290 29.9470 278° West 497 572 34,000  Level FlightAware
07:09AM 56.7531 29.5652 301° West  Level Estimated
07:10AM 56.8105 29.3868 300° West  Level Estimated
07:11AM 56.8675 29.2078 300° West  Level Estimated
07:11AM 56.7160 28.5690 300° West 494 568 34,000  Level FlightAware
07:11AM 56.7240 28.4250 276° West 494 568 34,000  Level FlightAware
07:12AM 56.7350 28.2180 276° West 491 565 34,000  Level FlightAware
07:13AM 56.7440 28.0590 276° West 489 563 34,000  Level FlightAware
07:13AM 56.7520 27.8920 275° West 486 559 34,000  Level FlightAware
07:14AM 56.7620 27.7050 276° West 483 556 34,000  Level FlightAware
07:15AM 56.7700 27.5420 275° West 482 555 34,000  Level FlightAware
07:15AM 56.7700 27.3580 270° West 484 557 34,000  Level FlightAware
07:16AM 56.7660 27.1990 267° West 484 557 34,000  Level FlightAware
07:17AM 56.7620 27.0130 268° West 486 559 34,000  Level FlightAware
07:18AM 56.7570 26.8510 267° West 488 562 34,000  Level FlightAware
07:18AM 56.7530 26.7060 267° West 487 560 34,000  Level FlightAware
07:19AM 56.7480 26.5210 267° West 485 558 34,000  Level FlightAware
07:19AM 56.7440 26.3830 267° West 484 557 34,000  Level FlightAware
07:20AM 56.7380 26.2010 267° West 483 556 34,000  Level FlightAware
07:21AM 56.7320 26.0160 267° West 482 555 34,000  Level FlightAware
07:22AM 56.7270 25.8540 267° West 482 555 34,000  Level FlightAware
07:22AM 56.7210 25.6990 266° West 482 555 34,000  Level FlightAware
07:23AM 56.7140 25.5150 266° West 481 554 34,000  Level FlightAware
07:24AM 56.7080 25.3530 266° West 482 555 34,000  Level FlightAware
07:24AM 56.7010 25.1720 266° West 483 556 34,000  Level FlightAware
07:25AM 56.6960 25.0420 266° West 482 555 34,000  Level FlightAware
07:26AM 56.6870 24.8300 266° West 477 549 34,000  Level FlightAware
07:27AM 56.6800 24.6740 265° West 475 547 34,000  Level FlightAware
07:27AM 56.6730 24.5150 265° West 475 547 34,000  Level FlightAware
07:28AM 56.6650 24.3360 265° West 475 547 34,000  Level FlightAware
07:29AM 56.6570 24.1770 265° West 475 547 34,000  Level FlightAware
07:29AM 56.6490 24.0220 265° West 475 547 34,000  Level FlightAware
07:30AM 56.6410 23.8610 265° West 472 543 34,000  Level FlightAware
07:31AM 56.6330 23.7030 265° West 471 542 34,000  Level FlightAware
07:31AM 56.6240 23.5290 265° West 470 541 34,000  Level FlightAware
07:32AM 56.6160 23.3730 265° West 470 541 34,000  Level FlightAware
07:33AM 56.6060 23.2060 264° West 468 539 34,000  Level FlightAware
07:33AM 56.5970 23.0380 265° West 466 536 34,000  Level FlightAware
07:34AM 56.5880 22.8880 264° West 466 536 34,000  Level FlightAware
07:35AM 56.5790 22.7420 264° West 468 539 34,000  Level FlightAware
07:35AM 56.5690 22.5740 264° West 468 539 34,000  Level FlightAware
07:36AM 56.5590 22.4160 264° West 469 540 34,000  Level FlightAware
07:37AM 56.5510 22.2810 264° West 468 539 34,000  Level FlightAware
07:37AM 56.5410 22.1250 263° West 465 535 34,000  Level FlightAware
07:38AM 56.5310 21.9800 263° West 464 534 34,000  Level FlightAware
07:39AM 56.5210 21.8260 263° West 463 533 34,000  Level FlightAware
07:39AM 56.5090 21.6520 263° West 463 533 34,000  Level FlightAware
07:40AM 56.4990 21.5050 263° West 463 533 34,000  Level FlightAware
07:41AM 56.4880 21.3510 263° West 462 532 34,000  Level FlightAware
07:41AM 56.4870 21.2350 269° West 450 518 34,000  Level FlightAware
07:42AM 56.4970 21.0320 275° West 448 516 34,000  Level FlightAware
07:43AM 56.5020 20.8680 273° West 446 513 34,000  Level FlightAware
07:44AM 56.5080 20.7100 274° West 445 512 34,000  Level FlightAware
07:44AM 56.5120 20.5910 274° West 445 512 34,000 60 Level FlightAware
07:45AM 56.5170 20.4560 274° West 438 504 34,100 360 Climbing FlightAware
07:45AM 56.5220 20.2910 273° West 441 507 34,500 540 Climbing FlightAware
07:46AM 56.5270 20.1440 274° West 443 510 34,900 840 Climbing FlightAware
07:47AM 56.5320 19.9820 273° West 439 505 35,700 540 Climbing FlightAware
07:48AM 56.5360 19.8320 273° West 449 517 35,700 180 Level FlightAware
07:48AM 56.5400 19.6820 273° West 453 521 36,000 180 Climbing FlightAware
07:49AM 56.5440 19.5160 273° West 452 520 36,000  Level FlightAware
07:50AM 56.5480 19.3700 273° West 450 518 36,000  Level FlightAware
07:50AM 56.5520 19.2010 273° West 448 516 36,000  Level FlightAware
07:51AM 56.5550 19.0510 272° West 447 514 36,000  Level FlightAware
07:51AM 56.5580 18.9520 273° West 447 514 36,000  Level FlightAware
07:52AM 56.5610 18.7830 272° West 446 513 36,000  Level FlightAware
07:53AM 56.5640 18.6190 272° West 445 512 36,000  Level FlightAware
07:54AM 56.5670 18.4640 272° West 445 512 36,000  Level FlightAware
07:54AM 56.5690 18.3210 272° West 446 513 36,000  Level FlightAware
07:55AM 56.5720 18.1490 272° West 448 516 36,000  Level FlightAware
07:56AM 56.5740 18.0000 271° West 447 514 36,000  Level FlightAware
07:56AM 56.5760 17.8360 271° West 446 513 36,000  Level FlightAware
07:57AM 56.5780 17.6860 271° West 443 510 36,000  Level FlightAware
07:58AM 56.5790 17.5250 271° West 439 505 36,000  Level FlightAware
07:59AM 56.5810 17.3780 271° West 439 505 36,000  Level FlightAware
07:59AM 56.5820 17.2170 271° West 440 506 36,000  Level FlightAware
08:00AM 56.5830 17.0720 271° West 439 505 36,000  Level FlightAware
08:01AM 56.5840 16.9100 271° West 439 505 36,000  Level FlightAware
08:01AM 56.5850 16.7620 271° West 439 505 36,000  Level FlightAware
08:02AM 56.5850 16.6020 270° West 437 503 36,000  Level FlightAware
08:03AM 56.5850 16.4630 270° West 433 498 36,000  Level FlightAware
08:03AM 56.5860 16.3050 271° West 434 499 36,000  Level FlightAware
08:04AM 56.5850 16.1600 269° West 436 502 36,000  Level FlightAware
08:05AM 56.5850 16.0050 270° West 437 503 36,000  Level FlightAware
08:05AM 56.5850 15.8750 270° West 433 498 36,000  Level FlightAware
08:06AM 56.5840 15.7150 269° West 431 496 36,000  Level FlightAware
08:07AM 56.5830 15.5810 269° West 431 496 36,000  Level FlightAware
08:07AM 56.5820 15.4440 269° West 432 497 36,000  Level FlightAware
08:08AM 56.5810 15.2850 269° West 431 496 36,000  Level FlightAware
08:09AM 56.5800 15.1430 269° West 431 496 36,000  Level FlightAware
08:09AM 56.5780 14.9880 269° West 431 496 36,000  Level FlightAware
08:10AM 56.5760 14.8300 269° West 432 497 36,000  Level FlightAware
08:11AM 56.5750 14.6810 269° West 432 497 36,000  Level FlightAware
08:12AM 56.5730 14.5320 269° West 433 498 36,000  Level FlightAware
08:12AM 56.5710 14.4060 268° West 433 498 36,000  Level FlightAware
08:13AM 56.5680 14.2610 268° West 434 499 36,000  Level FlightAware
08:14AM 56.5660 14.1000 269° West 434 499 36,000  Level FlightAware
08:14AM 56.5630 13.9740 268° West 433 498 36,000  Level FlightAware
08:15AM 56.5600 13.8000 268° West 433 498 36,000  Level FlightAware
08:16AM 56.5570 13.6490 268° West 433 498 36,000  Level FlightAware
08:16AM 56.5530 13.4940 267° West 433 498 36,000  Level FlightAware
08:17AM 56.5500 13.3470 268° West 433 498 36,000  Level FlightAware
08:18AM 56.5460 13.1980 267° West 434 499 36,000  Level FlightAware
08:18AM 56.5420 13.0500 267° West 434 499 36,000  Level FlightAware
08:19AM 56.5390 12.9070 268° West 434 499 36,000  Level FlightAware
08:20AM 56.5340 12.7620 266° West 432 497 36,000  Level FlightAware
08:20AM 56.5300 12.6040 267° West 432 497 36,000  Level FlightAware
08:21AM 56.5250 12.4510 267° West 432 497 36,000  Level FlightAware
08:22AM 56.5210 12.3060 267° West 431 496 36,000  Level FlightAware
08:23AM 56.5150 12.1500 266° West 432 497 36,000  Level FlightAware
08:23AM 56.5110 12.0210 267° West 432 497 36,000  Level FlightAware
08:24AM 56.5060 11.8780 266° West 431 496 36,000  Level FlightAware
08:25AM 56.5000 11.7240 266° West 429 494 36,000  Level FlightAware
08:25AM 56.4960 11.5980 267° West 430 495 36,000  Level FlightAware
08:26AM 56.4900 11.4410 266° West 429 494 36,000  Level FlightAware
08:27AM 56.4840 11.3000 266° West 430 495 36,000  Level FlightAware
08:27AM 56.4780 11.1530 266° West 430 495 36,000  Level FlightAware
08:28AM 56.4710 10.9900 266° West 430 495 36,000  Level FlightAware
08:29AM 56.4650 10.8500 266° West 427 491 36,000  Level FlightAware
08:29AM 56.4580 10.7060 265° West 425 489 36,000  Level FlightAware
08:30AM 56.4530 10.5780 266° West 424 488 36,000  Level FlightAware
08:31AM 56.4460 10.4320 265° West 424 488 36,000  Level FlightAware
08:31AM 56.4380 10.2720 265° West 425 489 36,000  Level FlightAware
08:32AM 56.4310 10.1340 265° West 426 490 36,000  Level FlightAware
08:33AM 56.4230 9.9780 265° West 427 491 36,000  Level FlightAware
08:33AM 56.4160 9.8400 265° West 428 493 36,000  Level FlightAware
08:34AM 56.4080 9.6900 265° West 430 495 36,000  Level FlightAware
08:35AM 56.4000 9.5440 264° West 431 496 36,000  Level FlightAware
08:35AM 56.3930 9.4130 265° West 431 496 36,000  Level FlightAware
08:36AM 56.3840 9.2630 264° West 430 495 36,000  Level FlightAware
08:37AM 56.3760 9.1170 264° West 431 496 36,000  Level FlightAware
08:37AM 56.3690 8.9920 264° West 431 496 36,000  Level FlightAware
08:38AM 56.3590 8.8380 263° West 432 497 36,000  Level FlightAware
08:39AM 56.3500 8.6910 264° West 432 497 36,000  Level FlightAware
08:39AM 56.3410 8.5400 264° West 433 498 36,000  Level FlightAware
08:40AM 56.3310 8.3850 263° West 433 498 36,000  Level FlightAware
08:41AM 56.3130 8.1130 263° West 436 502 36,000  Level FlightAware
08:42AM 56.3020 7.9540 263° West 436 502 36,000  Level FlightAware
08:43AM 56.2920 7.8090 263° West 437 503 36,000  Level FlightAware
08:44AM 56.2810 7.6410 263° West 439 505 36,000  Level FlightAware
08:44AM 56.2700 7.4840 263° West 441 507 36,000  Level FlightAware
08:45AM 56.2600 7.3450 263° West 444 511 36,000  Level FlightAware
08:46AM 56.2470 7.1780 262° West 446 513 36,000  Level FlightAware
08:46AM 56.2360 7.0290 262° West 448 516 36,000  Level FlightAware
08:47AM 56.2250 6.8860 262° West 448 516 36,000  Level FlightAware
08:48AM 56.2130 6.7280 262° West 449 517 36,000  Level FlightAware
08:48AM 56.2030 6.6060 262° West 449 517 36,000  Level FlightAware
08:49AM 56.1890 6.4350 262° West 450 518 36,000  Level FlightAware
08:50AM 56.1790 6.3030 262° West 451 519 36,000  Level FlightAware
08:50AM 56.1660 6.1450 262° West 453 521 36,000  Level FlightAware
08:51AM 56.1530 5.9960 261° West 455 524 36,000  Level FlightAware
08:52AM 56.1410 5.8470 262° West 456 525 36,000  Level FlightAware
08:52AM 56.1290 5.7160 261° West 456 525 36,000  Level FlightAware
08:53AM 56.1160 5.5630 261° West 457 526 36,000  Level FlightAware
08:54AM 56.1020 5.4090 261° West 457 526 36,000  Level FlightAware
08:54AM 56.0893 5.2764 261° West 1 1 36,000  Level FlightAware UK
08:54AM 56.0880 5.2510 261° West 459 528 36,000  Level FlightAware
08:55AM 56.0740 5.0990 261° West 459 528 36,000  Level FlightAware
08:56AM 56.0600 4.9510 260° West 462 532 36,000  Level FlightAware
08:56AM 56.0460 4.7950 261° West 464 534 36,000  Level FlightAware
08:57AM 56.0312 4.6708 261° West 1 1 36,000  Level FlightAware UK
08:57AM 56.0320 4.6550 261° West 465 535 36,000  Level FlightAware
08:58AM 56.0190 4.5150 261° West 467 537 36,000  Level FlightAware
08:58AM 56.0029 4.3463 261° West 468 539 36,000  Level FlightAware UK
08:59AM 56.0010 4.3390 261° West 468 539 36,000  Level FlightAware
08:59AM 55.9873 4.1874 261° West 468 539 36,000  Level FlightAware UK
08:59AM 55.9900 4.2230 261° West 469 540 36,000  Level FlightAware
09:00AM 55.9730 4.0570 260° West 469 540 36,000  Level FlightAware
09:00AM 55.9580 3.9050 260° West 468 539 36,000  Level FlightAware
09:01AM 55.9450 3.7770 260° West 467 537 36,000  Level FlightAware
09:02AM 55.9250 3.5900 260° West 466 536 36,000  Level FlightAware
09:02AM 55.9223 3.5519 260° West 470 541 36,000  Level FlightAware UK
09:02AM 55.9124 3.4385 260° West 468 539 36,000  Level FlightAware UK
09:03AM 55.9140 3.4080 260° West 464 534 36,000  Level FlightAware
09:03AM 55.9110 3.2850 268° West 464 534 36,000  Level FlightAware
09:04AM 55.9080 3.1510 268° West 464 534 36,000  Level FlightAware
09:05AM 55.9030 2.9640 267° West 465 535 36,000  Level FlightAware
09:05AM 55.8990 2.8130 267° West 466 536 36,000  Level FlightAware
09:06AM 55.8950 2.6600 267° West 464 534 36,000  Level FlightAware
09:07AM 55.8910 2.5250 267° West 462 532 36,000  Level FlightAware
09:07AM 55.8858 2.3215 267° West 468 539 36,000  Level FlightAware UK
09:08AM 55.8880 2.2750 267° West 458 527 36,000  Level FlightAware
09:08AM 55.8920 2.1350 273° West 457 526 36,000  Level FlightAware
09:09AM 55.8950 1.9640 272° West 455 524 36,000  Level FlightAware
09:10AM 55.8984 1.8064 272° West 468 539 36,000  Level FlightAware UK
09:10AM 55.8980 1.8170 272° West 454 522 36,000  Level FlightAware
09:10AM 55.9007 1.6490 272° West 468 539 36,000  Level FlightAware UK
09:10AM 55.9010 1.6480 272° West 454 522 36,000  Level FlightAware
09:11AM 55.9030 1.5180 272° West 453 521 36,000  Level FlightAware
09:12AM 55.9059 1.3371 272° West 464 534 36,000  Level FlightAware UK
09:12AM 55.9060 1.3380 272° West 452 520 36,000  Level FlightAware
09:13AM 55.9080 1.1660 271° West 452 520 36,000  Level FlightAware
09:13AM 55.9110 0.9610 272° West 451 519 36,000  Level FlightAware
09:14AM 55.9127 0.8048 272° West 466 536 36,000  Level FlightAware UK
09:14AM 55.9130 0.8140 272° West 451 519 36,000  Level FlightAware
09:15AM 55.9145 0.6502 272° West 466 536 36,000  Level FlightAware UK
09:15AM 55.9140 0.6280 272° West 451 519 36,000  Level FlightAware
09:16AM 55.9160 0.4060 271° West 448 516 36,000  Level FlightAware
09:17AM 55.9170 0.2600 271° West 446 513 36,000  Level FlightAware
09:17AM 55.9182 0.1226 271° West 466 536 36,000  Level FlightAware UK
09:17AM 55.9180 0.1190 271° West 444 511 36,000  Level FlightAware
09:18AM 55.9190 -0.0320 271° West 444 511 36,000  Level FlightAware
09:18AM 55.9192 -0.1603 271° West 462 532 36,000  Level FlightAware UK
09:19AM 55.9190 -0.1760 271° West 445 512 36,000  Level FlightAware
09:19AM 55.9190 -0.3250 270° West 447 514 36,000  Level FlightAware
09:20AM 55.9200 -0.4310 271° West 449 517 36,000  Level FlightAware
09:21AM 55.9200 -0.6020 270° West 452 520 36,000  Level FlightAware
09:21AM 55.9190 -0.7500 269° West 454 522 36,000  Level FlightAware
09:22AM 55.9190 -0.9190 270° West 454 522 36,000  Level FlightAware
09:23AM 55.9180 -1.0660 269° West 453 521 36,000  Level FlightAware
09:23AM 55.9180 -1.1970 270° West 451 519 36,000  Level FlightAware
09:24AM 55.9170 -1.3420 269° West 451 519 36,000  Level FlightAware
09:25AM 55.9152 -1.5364 269° West 464 534 36,000  Level FlightAware UK
09:25AM 55.9150 -1.5860 269° West 452 520 36,000  Level FlightAware
09:26AM 55.9127 -1.8030 269° West 464 534 36,000  Level FlightAware UK
09:26AM 55.9120 -1.8580 269° West 451 519 36,000  Level FlightAware
09:27AM 55.9100 -2.0120 269° West 450 518 36,000  Level FlightAware
09:27AM 55.9087 -2.1349 269° West 464 534 36,000  Level FlightAware UK
09:28AM 55.9080 -2.1610 269° West 449 517 36,000  Level FlightAware
09:28AM 55.8950 -2.3098 269° West 462 532 36,000  Level FlightAware UK
09:28AM 55.8920 -2.3330 269° West 449 517 36,000  Level FlightAware
09:29AM 55.8790 -2.4360 257° West 450 518 36,000  Level FlightAware
09:29AM 55.8610 -2.5770 257° West 450 518 36,000  Level FlightAware
09:29AM 55.8599 -2.5901 257° West 464 534 36,000  Level FlightAware UK
09:30AM 55.8407 -2.7410 257° West 464 534 36,000  Level FlightAware UK
09:30AM 55.8400 -2.7450 257° West 452 520 36,000  Level FlightAware
09:31AM 55.8241 -2.8711 257° West 464 534 36,000  Level FlightAware UK
09:31AM 55.8200 -2.8990 257° West 451 519 36,000  Level FlightAware
09:31AM 55.8043 -3.0225 257° West 466 536 36,000  Level FlightAware UK
09:32AM 55.8030 -3.0290 257° West 452 520 36,000  Level FlightAware
09:32AM 55.7780 -3.2210 257° West 451 519 36,000  Level FlightAware
09:33AM 55.7590 -3.3650 257° West 449 517 36,000  Level FlightAware
09:34AM 55.7410 -3.5030 257° West 449 517 36,000  Level FlightAware
09:35AM 55.7050 -3.7680 257° West 450 518 36,000  Level FlightAware
09:36AM 55.6880 -3.8930 257° West 452 520 36,000  Level FlightAware
09:36AM 55.6850 -3.9267 257° West 464 534 36,000  Level FlightAware UK
09:36AM 55.6930 -4.0710 273° West 459 528 36,000  Level FlightAware
09:37AM 55.7030 -4.2030 278° West 459 528 36,000  Level FlightAware
09:38AM 55.7200 -4.4240 278° West 459 528 36,000  Level FlightAware
09:38AM 55.7208 -4.4396 278° West 464 534 36,000  Level FlightAware UK
09:39AM 55.7308 -4.5745 278° West 464 534 36,000  Level FlightAware UK
09:39AM 55.7310 -4.5770 278° West 460 529 36,000  Level FlightAware
09:39AM 55.7390 -4.6870 277° West 460 529 36,000  Level FlightAware
09:40AM 55.7510 -4.8590 277° West 460 529 36,000  Level FlightAware
09:41AM 55.7610 -5.0010 277° West 461 531 36,000  Level FlightAware
09:41AM 55.7690 -5.1400 276° West 461 531 36,000  Level FlightAware
09:42AM 55.7780 -5.2690 277° West 461 531 36,000  Level FlightAware
09:42AM 55.7870 -5.4260 276° West 461 531 36,000  Level FlightAware
09:43AM 55.7986 -5.6096 276° West 466 536 36,000  Level FlightAware UK
09:43AM 55.8000 -5.6300 276° West 460 529 36,000  Level FlightAware
09:44AM 55.8100 -5.8070 276° West 459 528 36,000  Level FlightAware
09:45AM 55.8197 -5.9690 276° West 464 534 36,000  Level FlightAware UK
09:45AM 55.8190 -5.9580 276° West 458 527 36,000  Level FlightAware
09:45AM 55.8259 -6.0809 276° West 462 532 36,000  Level FlightAware UK
09:45AM 55.8270 -6.1080 276° West 458 527 36,000  Level FlightAware
09:46AM 55.8370 -6.2790 276° West 459 528 36,000  Level FlightAware
09:47AM 55.8450 -6.4280 276° West 460 529 36,000  Level FlightAware
09:47AM 55.8454 -6.4392 276° West 464 534 36,000  Level FlightAware UK
09:47AM 55.8513 -6.5518 276° West 464 534 36,000  Level FlightAware UK
09:48AM 55.8540 -6.5980 276° West 459 528 36,000  Level FlightAware
09:48AM 55.8610 -6.7380 275° West 458 527 36,000  Level FlightAware
09:49AM 55.8696 -6.9122 275° West 460 529 36,000  Level FlightAware UK
09:49AM 55.8690 -6.9050 275° West 458 527 36,000  Level FlightAware
09:49AM 55.8750 -7.0247 275° West 464 534 36,000  Level FlightAware UK
09:50AM 55.8770 -7.0580 275° West 459 528 36,000  Level FlightAware
09:50AM 55.8840 -7.2110 275° West 460 529 36,000  Level FlightAware
09:51AM 55.8910 -7.3740 275° West 461 531 36,000  Level FlightAware
09:51AM 55.8919 -7.3860 275° West 462 532 36,000  Level FlightAware UK
09:52AM 55.8979 -7.5214 275° West 462 532 36,000  Level FlightAware UK
09:52AM 55.8980 -7.5320 275° West 462 532 36,000  Level FlightAware
09:52AM 55.9050 -7.6830 275° West 464 534 36,000  Level FlightAware
09:53AM 55.9127 -7.8634 275° West 462 532 36,000  Level FlightAware UK
09:53AM 55.9140 -7.8960 275° West 465 535 36,000  Level FlightAware
09:54AM 55.9200 -8.0510 274° West 467 537 36,000  Level FlightAware
09:55AM 55.9264 -8.2076 274° West 462 532 36,000  Level FlightAware UK
09:55AM 55.9260 -8.2010 274° West 468 539 36,000 120 Level FlightAware
09:55AM 55.9330 -8.3750 274° West 466 536 36,100 240 Climbing FlightAware
09:56AM 55.9380 -8.5340 273° West 462 532 36,400 480 Climbing FlightAware
09:57AM 55.9432 -8.6653 273° West 462 532 36,700 480 Climbing FlightAware UK
09:57AM 55.9440 -8.7050 273° West 462 532 36,800 300 Climbing FlightAware
09:58AM 55.9500 -8.8540 274° West 459 528 37,000 120 Climbing FlightAware
09:58AM 55.9550 -9.0110 273° West 457 526 37,000  Level FlightAware
09:59AM 55.9590 -9.1600 273° West 455 524 37,000  Level FlightAware
10:00AM 55.9640 -9.3090 273° West 456 525 37,000  Level FlightAware
10:00AM 55.9690 -9.4750 273° West 455 524 37,000  Level FlightAware
10:01AM 55.9730 -9.6300 273° West 454 522 37,000  Level FlightAware
10:02AM 55.9770 -9.7960 273° West 455 524 37,000  Level FlightAware
10:03AM 55.9830 -10.0130 273° West 456 525 37,000  Level FlightAware
10:03AM 55.9860 -10.1630 272° West 456 525 37,000  Level FlightAware
10:04AM 55.9890 -10.3170 272° West 458 527 37,000  Level FlightAware
10:05AM 55.9930 -10.4850 273° West 459 528 37,000  Level FlightAware
10:05AM 55.9960 -10.6390 272° West 458 527 37,000  Level FlightAware
10:06AM 55.9980 -10.7820 271° West 458 527 37,000  Level FlightAware
10:07AM 56.0010 -10.9570 272° West 458 527 37,000  Level FlightAware
10:08AM 56.0040 -11.1260 272° West 457 526 37,000  Level FlightAware
10:08AM 56.0060 -11.2770 271° West 457 526 37,000  Level FlightAware
10:09AM 56.0080 -11.4290 271° West 457 526 37,000  Level FlightAware
10:10AM 56.0100 -11.5790 271° West 458 527 37,000  Level FlightAware
10:10AM 56.0110 -11.7290 271° West 458 527 37,000  Level FlightAware
10:11AM 56.0130 -11.9200 271° West 458 527 37,000  Level FlightAware
10:12AM 56.0140 -12.0500 271° West 459 528 37,000  Level FlightAware
10:12AM 56.0150 -12.1970 271° West 460 529 37,000  Level FlightAware
10:13AM 56.0150 -12.2870 270° West 460 529 37,000  Level FlightAware
10:14AM 56.0150 -12.4430 270° West 460 529 37,000  Level FlightAware
10:14AM 56.0150 -12.5630 270° West 460 529 37,000  Level FlightAware
10:15AM 56.0150 -12.7500 270° West 460 529 37,000  Level FlightAware
10:16AM 56.0150 -12.8670 270° West 460 529 37,000  Level FlightAware
10:17AM 56.0150 -13.0220 270° West 460 529 37,000  Level FlightAware
10:17AM 56.0150 -13.1420 270° West 460 529 37,000  Level FlightAware
10:18AM 56.0150 -13.2910 270° West 460 529 37,000  Level FlightAware
10:19AM 56.0150 -13.4070 270° West 460 529 37,000  Level FlightAware
10:19AM 56.0150 -13.5620 270° West 460 529 37,000  Level FlightAware
10:20AM 56.0150 -13.6820 270° West 460 529 37,000  Level FlightAware
10:21AM 56.0150 -13.8410 270° West 460 529 37,000  Level FlightAware
10:21AM 56.0150 -13.9610 270° West 460 529 37,000  Level FlightAware
10:24AM 55.9972 -14.3821 266° West  Level Estimated
10:25AM 55.9868 -14.6140 266° West  Level Estimated
10:26AM 55.9759 -14.8458 265° West  Level Estimated
10:27AM 55.9646 -15.0775 265° West  Level Estimated
10:28AM 55.9529 -15.3090 265° West  Level Estimated
10:29AM 55.9408 -15.5404 265° West  Level Estimated
10:30AM 55.9282 -15.7717 265° West  Level Estimated
10:31AM 55.9151 -16.0028 264° West  Level Estimated
10:32AM 55.9017 -16.2337 264° West  Level Estimated
10:33AM 55.8878 -16.4645 264° West  Level Estimated
10:34AM 55.8735 -16.6951 264° West  Level Estimated
10:35AM 55.8587 -16.9256 264° West  Level Estimated
10:36AM 55.8435 -17.1558 263° West  Level Estimated
10:37AM 55.8279 -17.3859 263° West  Level Estimated
10:38AM 55.8119 -17.6158 263° West  Level Estimated
10:39AM 55.7954 -17.8455 263° West  Level Estimated
10:40AM 55.7785 -18.0750 263° West  Level Estimated
10:41AM 55.7612 -18.3043 262° West  Level Estimated
10:42AM 55.7434 -18.5334 262° West  Level Estimated
10:43AM 55.7253 -18.7623 262° West  Level Estimated
10:44AM 55.7067 -18.9909 262° West  Level Estimated
10:45AM 55.6876 -19.2194 262° West  Level Estimated
10:46AM 55.6682 -19.4476 261° West  Level Estimated
10:47AM 55.6483 -19.6756 261° West  Level Estimated
10:47AM 57.0000 -20.0000 285° West 479 551 37,000  Level ETMS Enhanced Traffic Management System
10:48AM 55.6280 -19.9033 261° West  Level Estimated
10:49AM 55.6073 -20.1309 261° West  Level Estimated
10:50AM 55.5862 -20.3581 261° West  Level Estimated
10:51AM 55.5646 -20.5852 261° West  Level Estimated
10:52AM 55.5426 -20.8120 260° West  Level Estimated
10:53AM 57.2261 -21.6656 283° West 479 551 37,000  Level FlightAware Transoceanic
10:54AM 57.2566 -21.9051 283° West 479 551 37,000  Level FlightAware Transoceanic
10:55AM 57.2867 -22.1451 283° West 479 551 37,000  Level FlightAware Transoceanic
10:56AM 57.3162 -22.3854 283° West 479 551 37,000  Level FlightAware Transoceanic
10:57AM 57.3454 -22.6262 283° West 479 551 37,000  Level FlightAware Transoceanic
10:58AM 57.3740 -22.8673 282° West 479 551 37,000  Level FlightAware Transoceanic
10:59AM 57.4022 -23.1088 282° West 479 551 37,000  Level FlightAware Transoceanic
11:00AM 57.4300 -23.3506 282° West 479 551 37,000  Level FlightAware Transoceanic
11:01AM 57.4572 -23.5928 282° West 479 551 37,000  Level FlightAware Transoceanic
11:02AM 57.4840 -23.8354 282° West 479 551 37,000  Level FlightAware Transoceanic
11:03AM 57.5104 -24.0784 281° West 479 551 37,000  Level FlightAware Transoceanic
11:04AM 57.5363 -24.3216 281° West 479 551 37,000  Level FlightAware Transoceanic
11:05AM 57.5617 -24.5653 281° West 479 551 37,000  Level FlightAware Transoceanic
11:06AM 57.5866 -24.8092 281° West 479 551 37,000  Level FlightAware Transoceanic
11:07AM 57.6111 -25.0535 280° West 479 551 37,000  Level FlightAware Transoceanic
11:08AM 57.6351 -25.2981 280° West 479 551 37,000  Level FlightAware Transoceanic
11:09AM 57.6586 -25.5431 280° West 479 551 37,000  Level FlightAware Transoceanic
11:10AM 57.6816 -25.7883 280° West 479 551 37,000  Level FlightAware Transoceanic
11:11AM 57.7042 -26.0339 280° West 479 551 37,000  Level FlightAware Transoceanic
11:12AM 57.7263 -26.2798 279° West 479 551 37,000  Level FlightAware Transoceanic
11:13AM 57.7479 -26.5259 279° West 479 551 37,000  Level FlightAware Transoceanic
11:14AM 57.7691 -26.7724 279° West 479 551 37,000  Level FlightAware Transoceanic
11:15AM 57.7897 -27.0191 279° West 479 551 37,000  Level FlightAware Transoceanic
11:16AM 57.8099 -27.2661 279° West 479 551 37,000  Level FlightAware Transoceanic
11:17AM 57.8296 -27.5134 278° West 479 551 37,000  Level FlightAware Transoceanic
11:18AM 57.8488 -27.7610 278° West 479 551 37,000  Level FlightAware Transoceanic
11:19AM 57.8676 -28.0088 278° West 479 551 37,000  Level FlightAware Transoceanic
11:20AM 57.8858 -28.2569 278° West 479 551 37,000  Level FlightAware Transoceanic
11:21AM 57.9036 -28.5052 278° West 479 551 37,000  Level FlightAware Transoceanic
11:22AM 57.9209 -28.7538 277° West 479 551 37,000  Level FlightAware Transoceanic
11:23AM 57.9377 -29.0026 277° West 479 551 37,000  Level FlightAware Transoceanic
11:24AM 57.9540 -29.2516 277° West 479 551 37,000  Level FlightAware Transoceanic
11:25AM 57.9698 -29.5009 277° West 479 551 37,000  Level FlightAware Transoceanic
11:26AM 57.9851 -29.7503 277° West 479 551 37,000 -60 Level FlightAware Transoceanic
11:27AM 57.9997 -29.9943 277° West  Level FlightAware Approximate
11:28AM 58.0136 -30.2386 276° West  Level FlightAware Approximate
11:29AM 58.0311 -30.2268 285° West  Level FlightAware Approximate
11:30AM 58.0632 -30.4651 284° West  Level FlightAware Approximate
11:31AM 58.0949 -30.7038 284° West  Level FlightAware Approximate
11:32AM 58.1261 -30.9430 284° West  Level FlightAware Approximate
11:33AM 58.1570 -31.1826 284° West  Level FlightAware Approximate
11:34AM 58.1873 -31.4225 284° West  Level FlightAware Approximate
11:35AM 58.2172 -31.6629 283° West  Level FlightAware Approximate
11:36AM 58.2467 -31.9037 283° West  Level FlightAware Approximate
11:37AM 58.2757 -32.1449 283° West  Level FlightAware Approximate
11:38AM 58.3042 -32.3864 283° West  Level FlightAware Approximate
11:39AM 58.3323 -32.6284 283° West  Level FlightAware Approximate
11:40AM 58.3604 -32.8705 283° West  Level FlightAware Approximate
11:41AM 58.3891 -33.1126 283° West  Level FlightAware Approximate
11:42AM 58.4173 -33.3551 283° West  Level FlightAware Approximate
11:43AM 58.4450 -33.5980 282° West  Level FlightAware Approximate
11:44AM 58.4723 -33.8413 282° West  Level FlightAware Approximate
11:45AM 58.4992 -34.0849 282° West  Level FlightAware Approximate
11:46AM 58.5255 -34.3289 282° West  Level FlightAware Approximate
11:47AM 58.5514 -34.5732 282° West  Level FlightAware Approximate
11:48AM 58.5769 -34.8180 281° West  Level FlightAware Approximate
11:49AM 58.6018 -35.0630 281° West  Level FlightAware Approximate
11:50AM 58.6263 -35.3085 281° West  Level FlightAware Approximate
11:51AM 58.6503 -35.5542 281° West  Level FlightAware Approximate
11:52AM 58.6739 -35.8003 281° West  Level FlightAware Approximate
11:53AM 58.6970 -36.0468 280° West  Level FlightAware Approximate
11:54AM 58.7196 -36.2935 280° West  Level FlightAware Approximate
11:55AM 58.7418 -36.5406 280° West  Level FlightAware Approximate
11:56AM 58.7635 -36.7880 280° West  Level FlightAware Approximate
11:57AM 58.7846 -37.0357 279° West  Level FlightAware Approximate
11:58AM 58.8054 -37.2836 279° West  Level FlightAware Approximate
11:59AM 58.8256 -37.5319 279° West  Level FlightAware Approximate
12:00PM 58.8454 -37.7805 279° West  Level FlightAware Approximate
12:01PM 58.8647 -38.0294 279° West  Level FlightAware Approximate
12:02PM 58.8835 -38.2785 278° West  Level FlightAware Approximate
12:03PM 58.9019 -38.5279 278° West  Level FlightAware Approximate
12:04PM 58.9197 -38.7775 278° West  Level FlightAware Approximate
12:05PM 58.9371 -39.0274 278° West  Level FlightAware Approximate
12:06PM 58.9540 -39.2776 278° West  Level FlightAware Approximate
12:07PM 58.9704 -39.5280 277° West  Level FlightAware Approximate
12:08PM 58.9863 -39.7786 277° West  Level FlightAware Approximate
12:09PM 59.0011 -40.0296 274° West  Level FlightAware Approximate
12:10PM 59.0106 -40.2817 274° West  Level FlightAware Approximate
12:11PM 59.0195 -40.5339 274° West  Level FlightAware Approximate
12:12PM 59.0280 -40.7862 274° West  Level FlightAware Approximate
12:13PM 59.0359 -41.0387 274° West  Level FlightAware Approximate
12:14PM 59.0434 -41.2912 273° West  Level FlightAware Approximate
12:15PM 59.0504 -41.5439 273° West  Level FlightAware Approximate
12:16PM 59.0569 -41.7966 273° West  Level FlightAware Approximate
12:17PM 59.0629 -42.0495 273° West  Level FlightAware Approximate
12:18PM 59.0684 -42.3024 273° West  Level FlightAware Approximate
12:19PM 59.0734 -42.5555 272° West  Level FlightAware Approximate
12:20PM 59.0779 -42.8086 272° West  Level FlightAware Approximate
12:21PM 59.0819 -43.0617 272° West  Level FlightAware Approximate
12:22PM 59.0854 -43.3149 272° West  Level FlightAware Approximate
12:23PM 59.0885 -43.5682 271° West  Level FlightAware Approximate
12:24PM 59.0910 -43.8215 271° West  Level FlightAware Approximate
12:25PM 59.0931 -44.0748 271° West  Level FlightAware Approximate
12:26PM 59.0946 -44.3282 271° West  Level FlightAware Approximate
12:27PM 59.0957 -44.5816 271° West  Level FlightAware Approximate
12:28PM 59.0962 -44.8349 270° West  Level FlightAware Approximate
12:29PM 59.0963 -45.0883 270° West  Level FlightAware Approximate
12:30PM 59.0959 -45.3417 270° West  Level FlightAware Approximate
12:31PM 59.0950 -45.5951 270° West  Level FlightAware Approximate
12:32PM 59.0936 -45.8485 269° West  Level FlightAware Approximate
12:33PM 59.0917 -46.1018 269° West  Level FlightAware Approximate
12:34PM 59.0893 -46.3551 269° West  Level FlightAware Approximate
12:35PM 59.0864 -46.6084 269° West  Level FlightAware Approximate
12:36PM 59.0830 -46.8616 269° West  Level FlightAware Approximate
12:37PM 59.0792 -47.1148 268° West  Level FlightAware Approximate
12:38PM 59.0748 -47.3679 268° West  Level FlightAware Approximate
12:39PM 59.0699 -47.6210 268° West  Level FlightAware Approximate
12:40PM 59.0646 -47.8739 268° West  Level FlightAware Approximate
12:41PM 59.0587 -48.1268 268° West  Level FlightAware Approximate
12:42PM 59.0524 -48.3796 267° West  Level FlightAware Approximate
12:43PM 59.0456 -48.6323 267° West  Level FlightAware Approximate
12:44PM 59.0382 -48.8849 267° West  Level FlightAware Approximate
12:45PM 59.0304 -49.1374 267° West  Level FlightAware Approximate
12:46PM 59.0221 -49.3898 266° West  Level FlightAware Approximate
12:47PM 59.0133 -49.6420 266° West  Level FlightAware Approximate
12:48PM 59.0041 -49.8941 266° West  Level FlightAware Approximate
12:49PM 58.9785 -50.1404 254° West  Level FlightAware Approximate
12:50PM 58.9411 -50.3822 253° West  Level FlightAware Approximate
12:51PM 58.9033 -50.6234 253° West  Level FlightAware Approximate
12:52PM 58.8650 -50.8641 253° West  Level FlightAware Approximate
12:53PM 58.8263 -51.1043 253° West  Level FlightAware Approximate
12:54PM 58.7871 -51.3439 253° West  Level FlightAware Approximate
12:55PM 58.7475 -51.5830 252° West  Level FlightAware Approximate
12:56PM 58.7075 -51.8216 252° West  Level FlightAware Approximate
12:57PM 58.6670 -52.0596 252° West  Level FlightAware Approximate
12:58PM 58.6262 -52.2971 252° West  Level FlightAware Approximate
12:59PM 58.5848 -52.5340 252° West  Level FlightAware Approximate
01:00PM 58.5431 -52.7703 251° West  Level FlightAware Approximate
01:01PM 58.5009 -53.0061 251° West  Level FlightAware Approximate
01:02PM 58.4583 -53.2413 251° West  Level FlightAware Approximate
01:03PM 58.4152 -53.4759 251° West  Level FlightAware Approximate
01:04PM 58.3717 -53.7100 251° West  Level FlightAware Approximate
01:05PM 58.3278 -53.9435 250° West  Level FlightAware Approximate
01:06PM 58.2835 -54.1764 250° West  Level FlightAware Approximate
01:07PM 58.2388 -54.4087 250° West  Level FlightAware Approximate
01:08PM 58.1936 -54.6404 250° West  Level FlightAware Approximate
01:09PM 58.1480 -54.8715 250° West  Level FlightAware Approximate
01:10PM 58.1020 -55.1021 249° West  Level FlightAware Approximate
01:11PM 58.0556 -55.3320 249° West  Level FlightAware Approximate
01:12PM 57.9567 -55.4915 221° Southwest  Level Estimated
01:13PM 57.8577 -55.6501 220° Southwest  Level Estimated
01:14PM 57.7585 -55.8078 220° Southwest  Level Estimated
01:15PM 57.6599 -55.9634 220° Southwest  Level Estimated
01:16PM 57.5612 -56.1181 220° Southwest  Level Estimated
01:17PM 57.4622 -56.2720 220° Southwest  Level Estimated
01:18PM 57.3631 -56.4250 220° Southwest  Level Estimated
01:19PM 57.2637 -56.5772 220° Southwest  Level Estimated
01:20PM 57.1642 -56.7286 220° Southwest  Level Estimated
01:21PM 57.0646 -56.8792 219° Southwest  Level Estimated
01:22PM 56.9647 -57.0289 219° Southwest  Level Estimated
01:23PM 56.8647 -57.1779 219° Southwest  Level Estimated
01:24PM 56.7645 -57.3261 219° Southwest  Level Estimated
01:25PM 56.6641 -57.4734 219° Southwest  Level Estimated
01:26PM 56.5635 -57.6200 219° Southwest  Level Estimated
01:27PM 56.4627 -57.7659 219° Southwest  Level Estimated
01:28PM 56.3618 -57.9109 219° Southwest  Level Estimated
01:28PM 56.7167 -58.5333 218° Southwest 450 518 36,000  Level Moncton Center
01:29PM 56.2608 -58.0552 218° Southwest  Level Estimated
01:29PM 56.6000 -58.6667 212° Southwest 450 518 36,000  Level Moncton Center
01:30PM 56.1595 -58.1987 218° Southwest  Level Estimated
01:30PM 56.5000 -58.8000 216° Southwest 450 518 36,000  Level Moncton Center
01:31PM 56.0593 -58.3398 218° Southwest  Level Estimated
01:31PM 56.4000 -58.9500 220° Southwest 450 518 36,000  Level Moncton Center
01:32PM 55.9590 -58.4801 218° Southwest  Level Estimated
01:32PM 56.3000 -59.0500 209° Southwest 450 518 36,000  Level Moncton Center
01:33PM 55.8584 -58.6197 218° Southwest  Level Estimated
01:33PM 56.1833 -59.1833 212° Southwest 450 518 36,000  Level Moncton Center
01:34PM 56.1000 -59.3167 222° Southwest 450 518 36,000  Level Moncton Center
01:35PM 56.0000 -59.4167 209° Southwest 450 518 36,000  Level Moncton Center
01:36PM 55.8833 -59.5500 213° Southwest 450 518 36,000  Level Moncton Center
01:37PM 55.7833 -59.6833 217° Southwest 450 518 36,000  Level Moncton Center
01:38PM 55.6833 -59.8167 217° Southwest 450 518 36,000  Level Moncton Center
01:39PM 55.5833 -59.9167 209° Southwest 450 518 36,000  Level Moncton Center
01:40PM 55.4667 -60.0333 210° Southwest 450 518 36,000  Level Moncton Center
01:41PM 55.3667 -60.1667 217° Southwest 450 518 36,000  Level Moncton Center
01:42PM 55.2667 -60.3000 217° Southwest 450 518 36,000  Level Moncton Center
01:44PM 55.0757 -60.4448 203° Southwest  Level FlightAware Approximate
01:45PM 54.9500 -60.6500 203° Southwest 440 506 36,000  Level Moncton Center
01:46PM 54.8333 -60.7500 206° Southwest 440 506 36,000  Level Moncton Center
01:47PM 54.7500 -60.8667 219° Southwest 440 506 36,000  Level Moncton Center
01:48PM 54.6500 -60.9833 214° Southwest 440 506 36,000  Level Moncton Center
01:49PM 54.5333 -61.1167 214° Southwest 440 506 36,000  Level Moncton Center
01:50PM 54.4333 -61.2167 210° Southwest 440 506 36,000  Level Moncton Center
01:51PM 54.3167 -61.3333 210° Southwest 440 506 36,000  Level Moncton Center
01:52PM 54.2167 -61.4167 206° Southwest 440 506 36,000  Level Moncton Center
01:53PM 54.1167 -61.5500 218° Southwest 440 506 36,000  Level Moncton Center
01:54PM 54.0167 -61.6667 214° Southwest 440 506 36,000  Level Moncton Center
01:55PM 53.9000 -61.7833 211° Southwest 440 506 36,000  Level Moncton Center
01:56PM 53.8000 -61.8833 211° Southwest 440 506 36,000  Level Moncton Center
01:57PM 53.7000 -62.0000 215° Southwest 440 506 36,000  Level Moncton Center
01:58PM 53.6000 -62.0833 206° Southwest 440 506 36,000  Level Moncton Center
01:59PM 53.4833 -62.2000 211° Southwest 440 506 36,000  Level Moncton Center
02:00PM 53.3833 -62.3167 215° Southwest 440 506 36,000  Level Moncton Center
02:01PM 53.2833 -62.4167 211° Southwest 440 506 36,000  Level Moncton Center
02:02PM 53.1667 -62.5333 211° Southwest 440 506 36,000  Level Moncton Center
02:03PM 53.0833 -62.6500 220° Southwest 440 506 36,000  Level Moncton Center
02:04PM 52.9667 -62.7333 203° Southwest 440 506 36,000  Level Moncton Center
02:05PM 52.8667 -62.8500 215° Southwest 430 495 36,000  Level Moncton Center
02:06PM 52.7667 -62.9333 207° Southwest 430 495 36,000  Level Moncton Center
02:07PM 52.6667 -63.0500 215° Southwest 430 495 36,000  Level Moncton Center
02:08PM 52.5667 -63.1667 215° Southwest 430 495 36,000  Level Moncton Center
02:09PM 52.4500 -63.2500 204° Southwest 430 495 36,000  Level Moncton Center
02:10PM 52.3500 -63.3333 207° Southwest 440 506 36,000  Level Moncton Center
02:11PM 52.2333 -63.4167 204° Southwest 440 506 36,000  Level Moncton Center
02:12PM 52.1167 -63.5000 204° Southwest 430 495 36,000  Level Moncton Center
02:13PM 52.0167 -63.5833 207° Southwest 430 495 36,000  Level Moncton Center
02:14PM 51.9167 -63.7000 216° Southwest 430 495 36,000  Level Moncton Center
02:15PM 51.8000 -63.7667 199° South 430 495 36,000  Level Moncton Center
02:16PM 51.6833 -63.8500 204° Southwest 440 506 36,000  Level Moncton Center
02:17PM 51.5833 -63.9333 207° Southwest 440 506 36,000  Level Moncton Center
02:18PM 51.4667 -64.0167 204° Southwest 440 506 36,000  Level Moncton Center
02:19PM 51.3667 -64.1000 207° Southwest 440 506 36,000  Level Moncton Center
02:20PM 51.2500 -64.2167 212° Southwest 440 506 36,000  Level Moncton Center
02:21PM 51.1333 -64.2833 200° South 440 506 36,000  Level Moncton Center
02:22PM 51.0167 -64.3667 204° Southwest 440 506 36,000  Level Moncton Center
02:23PM 50.9167 -64.4500 208° Southwest 440 506 36,000  Level Moncton Center
02:24PM 50.8167 -64.5333 208° Southwest 440 506 36,000  Level Moncton Center
02:25PM 50.7000 -64.6167 204° Southwest 440 506 36,000  Level Moncton Center
02:26PM 50.5833 -64.6833 200° South 440 506 36,000  Level Moncton Center
02:27PM 50.4667 -64.7833 209° Southwest 440 506 36,000  Level Moncton Center
02:28PM 50.3667 -64.8667 208° Southwest 440 506 36,000  Level Moncton Center
02:29PM 50.2500 -64.9500 205° Southwest 440 506 36,000  Level Moncton Center
02:30PM 50.1500 -65.0167 203° Southwest 440 506 36,000  Level Moncton Center
02:31PM 50.0167 -65.1000 202° Southwest 440 506 36,000  Level Moncton Center
02:32PM 49.9000 -65.1833 205° Southwest 440 506 36,000  Level Moncton Center
02:33PM 49.8000 -65.2500 203° Southwest 440 506 36,000  Level Moncton Center
02:34PM 49.6833 -65.3500 209° Southwest 440 506 36,000  Level Moncton Center
02:35PM 49.5667 -65.4333 205° Southwest 440 506 36,000  Level Moncton Center
02:36PM 49.4500 -65.5000 200° South 440 506 36,000  Level Moncton Center
02:37PM 49.3500 -65.5833 209° Southwest 450 518 36,000  Level Moncton Center
02:38PM 49.2333 -65.6500 200° South 450 518 36,000  Level Moncton Center
02:39PM 49.1167 -65.7500 209° Southwest 450 518 36,000  Level Moncton Center
02:40PM 49.0167 -65.8333 209° Southwest 450 518 36,000  Level Moncton Center
02:41PM 48.9000 -65.9000 201° Southwest 450 518 36,000  Level Moncton Center
02:42PM 48.7833 -65.9667 201° Southwest 450 518 36,000  Level Moncton Center
02:43PM 48.6667 -66.0667 210° Southwest 460 529 36,000  Level Moncton Center
02:44PM 48.5333 -66.1500 202° Southwest 460 529 36,000  Level Moncton Center
02:45PM 48.4333 -66.2167 204° Southwest 460 529 36,000  Level Moncton Center
02:47PM 48.2000 -66.3833 205° Southwest 450 518 36,000  Level Moncton Center
02:48PM 48.0833 -66.4500 201° Southwest 450 518 36,000  Level Moncton Center
02:49PM 47.9667 -66.5167 201° Southwest 460 529 36,000  Level Moncton Center
02:50PM 47.8500 -66.6167 210° Southwest 460 529 36,000  Level Moncton Center
02:52PM 47.6394 -66.7586 204° Southwest 466 536 36,000  Level Boston Center
02:53PM 47.5219 -66.8325 203° Southwest 466 536 36,000  Level Boston Center
02:54PM 47.4069 -66.9086 204° Southwest 466 536 36,000  Level Boston Center
02:55PM 47.2939 -66.9844 204° Southwest 466 536 36,000  Level Boston Center
02:56PM 47.1500 -67.0500 197° South 450 518 36,000  Level Moncton Center
02:57PM 47.0606 -67.1203 208° Southwest 461 531 36,000  Level Boston Center
03:02PM 46.6710 -67.3720 208° Southwest 36,000  Level FlightAware
03:03PM 46.3690 -67.5600 203° Southwest 432 497 36,000  Level FlightAware
03:04PM 46.3130 -67.5940 203° Southwest 432 497 36,000  Level FlightAware
03:04PM 46.2350 -67.6420 203° Southwest 425 489 36,000  Level FlightAware
03:05PM 46.1590 -67.6890 203° Southwest 437 503 36,000  Level FlightAware
03:06PM 46.0760 -67.7390 203° Southwest 440 506 36,000  Level FlightAware
03:06PM 45.9890 -67.7920 203° Southwest 440 506 36,000  Level FlightAware
03:07PM 45.9260 -67.8300 203° Southwest 438 504 36,000  Level FlightAware
03:08PM 45.8600 -67.8710 203° Southwest 424 488 36,000  Level FlightAware
03:08PM 45.7790 -67.9200 203° Southwest 420 483 36,000  Level FlightAware
03:09PM 45.7040 -67.9650 203° Southwest 421 484 36,000  Level FlightAware
03:10PM 45.6220 -68.0140 203° Southwest 421 484 36,000  Level FlightAware
03:10PM 45.5570 -68.0530 203° Southwest 421 484 36,000  Level FlightAware
03:11PM 45.4630 -68.1090 203° Southwest 426 490 36,000  Level FlightAware
03:12PM 45.3780 -68.1600 203° Southwest 427 491 36,000  Level FlightAware
03:13PM 45.3020 -68.2050 203° Southwest 429 494 36,000  Level FlightAware
03:13PM 45.2260 -68.2500 203° Southwest 428 493 36,000  Level FlightAware
03:14PM 45.1530 -68.2930 203° Southwest 426 490 36,000  Level FlightAware
03:15PM 45.0710 -68.3410 202° Southwest 427 491 36,000  Level FlightAware
03:15PM 44.9970 -68.3840 202° Southwest 425 489 36,000  Level FlightAware
03:16PM 44.9260 -68.4260 203° Southwest 423 487 36,000  Level FlightAware
03:17PM 44.8410 -68.4750 202° Southwest 421 484 36,000  Level FlightAware
03:18PM 44.7710 -68.5160 203° Southwest 420 483 36,000  Level FlightAware
03:18PM 44.6900 -68.5630 202° Southwest 421 484 36,000  Level FlightAware
03:19PM 44.6160 -68.6060 202° Southwest 422 486 36,000  Level FlightAware
03:20PM 44.5370 -68.6510 202° Southwest 421 484 36,000  Level FlightAware
03:20PM 44.4620 -68.6950 203° Southwest 421 484 36,000  Level FlightAware
03:21PM 44.4190 -68.7190 202° Southwest 420 483 36,000  Level FlightAware
03:22PM 44.3460 -68.7610 202° Southwest 420 483 36,000  Level FlightAware
03:22PM 44.2780 -68.8000 202° Southwest 420 483 36,000  Level FlightAware
03:23PM 44.2030 -68.8420 202° Southwest 422 486 36,000  Level FlightAware
03:23PM 44.1330 -68.8820 202° Southwest 425 489 36,000  Level FlightAware
03:24PM 44.0600 -68.9230 202° Southwest 426 490 36,000  Level FlightAware
03:25PM 43.9670 -68.9760 202° Southwest 427 491 36,000  Level FlightAware
03:26PM 43.8810 -69.0250 202° Southwest 428 493 36,000  Level FlightAware
03:26PM 43.8220 -69.0580 202° Southwest 36,000  Level FlightAware
03:27PM 43.7430 -69.1020 202° Southwest 419 482 36,000  Level FlightAware
03:28PM 43.6550 -69.1510 202° Southwest 425 489 36,000  Level FlightAware
03:29PM 43.5710 -69.1970 202° Southwest 427 491 36,000  Level FlightAware
03:29PM 43.5220 -69.2240 202° Southwest 429 494 36,000  Level FlightAware
03:30PM 43.4560 -69.2610 202° Southwest 431 496 36,000  Level FlightAware
03:31PM 43.3540 -69.3170 202° Southwest 430 495 36,000  Level FlightAware
03:31PM 43.2800 -69.3580 202° Southwest 421 484 36,000  Level FlightAware
03:32PM 43.2180 -69.3920 202° Southwest 418 481 36,000  Level FlightAware
03:33PM 43.1430 -69.4330 202° Southwest 414 476 36,000  Level FlightAware
03:33PM 43.0640 -69.4770 202° Southwest 423 487 36,000  Level FlightAware
03:34PM 42.9990 -69.5120 201° Southwest 423 487 36,000  Level FlightAware
03:34PM 42.9260 -69.5520 202° Southwest 416 479 36,000  Level FlightAware
03:35PM 42.8160 -69.6110 201° Southwest 417 480 36,000  Level FlightAware
03:36PM 42.7430 -69.6510 202° Southwest 417 480 36,000  Level FlightAware
03:37PM 42.6710 -69.6900 202° Southwest 416 479 36,000  Level FlightAware
03:37PM 42.6060 -69.7240 201° Southwest 416 479 36,000  Level FlightAware
03:38PM 42.5250 -69.7680 202° Southwest 418 481 36,000  Level FlightAware
03:39PM 42.4530 -69.8060 201° Southwest 417 480 36,000  Level FlightAware
03:40PM 42.3690 -69.8510 202° Southwest 419 482 36,000  Level FlightAware
03:40PM 42.3050 -69.8850 201° Southwest 419 482 36,000  Level FlightAware
03:41PM 42.2300 -69.9250 202° Southwest 419 482 36,000  Level FlightAware
03:42PM 42.1490 -69.9680 201° Southwest 429 494 36,000  Level FlightAware
03:42PM 42.0850 -70.0040 203° Southwest 426 490 36,000  Level FlightAware
03:43PM 42.0100 -70.0650 211° Southwest 419 482 36,000  Level FlightAware
03:44PM 41.9390 -70.1510 222° Southwest 409 471 36,000  Level FlightAware
03:45PM 41.8680 -70.2560 228° Southwest 410 472 36,000  Level FlightAware
03:45PM 41.8100 -70.3410 228° Southwest 410 472 36,000  Level FlightAware
03:46PM 41.7600 -70.4140 227° Southwest 410 472 36,000  Level FlightAware
03:47PM 41.6980 -70.5050 228° Southwest 411 473 36,000  Level FlightAware
03:48PM 41.6350 -70.5950 227° Southwest 414 476 36,000  Level FlightAware
03:48PM 41.5860 -70.6660 227° Southwest 415 478 36,000  Level FlightAware
03:49PM 41.5280 -70.7510 228° Southwest 422 486 36,000  Level FlightAware
03:50PM 41.4720 -70.8310 227° Southwest 423 487 36,000  Level FlightAware
03:50PM 41.4180 -70.9070 227° Southwest 423 487 36,000  Level FlightAware
03:51PM 41.3580 -70.9940 227° Southwest 421 484 36,000  Level FlightAware
03:52PM 41.3070 -71.0670 227° Southwest 416 479 36,000  Level FlightAware
03:52PM 41.2600 -71.1530 234° Southwest 413 475 36,000  Level FlightAware
03:53PM 41.2230 -71.2520 244° Southwest 413 475 36,000  Level FlightAware
03:54PM 41.1960 -71.3490 250° West 416 479 36,000  Level FlightAware
03:55PM 41.1650 -71.4570 249° West 418 481 36,000  Level FlightAware
03:55PM 41.1400 -71.5480 250° West 418 481 36,000  Level FlightAware
03:56PM 41.1130 -71.6430 249° West 418 481 36,000  Level FlightAware
03:57PM 41.0830 -71.7490 249° West 419 482 36,000  Level FlightAware
03:57PM 41.0500 -71.8640 249° West 420 483 36,000  Level FlightAware
03:58PM 41.0222 -71.9602 249° West 419 482 36,000  Level FlightAware ADS-B
03:58PM 41.0131 -71.9891 247° West 417 480 36,000  Level FlightAware ADS-B
03:58PM 41.0002 -72.0164 238° Southwest 419 482 36,000  Level FlightAware ADS-B
03:59PM 40.9855 -72.0385 229° Southwest 421 484 36,000  Level FlightAware ADS-B
03:59PM 40.9299 -72.1089 224° Southwest 421 484 36,000  Level FlightAware ADS-B
04:00PM 40.8871 -72.1641 224° Southwest 421 484 36,000  Level FlightAware ADS-B
04:00PM 40.8392 -72.2256 224° Southwest 421 484 36,000  Level FlightAware ADS-B
04:01PM 40.7971 -72.2799 224° Southwest 421 484 36,000  Level FlightAware ADS-B
04:01PM 40.7536 -72.3363 224° Southwest 421 484 36,000  Level FlightAware ADS-B
04:02PM 40.7034 -72.4011 224° Southwest 422 486 36,000  Level FlightAware ADS-B
04:03PM 40.6318 -72.4932 224° Southwest 424 488 36,000  Level FlightAware ADS-B
04:04PM 40.5517 -72.5958 224° Southwest 426 490 36,000  Level FlightAware ADS-B
04:05PM 40.4970 -72.6650 224° Southwest 424 488 36,000  Level FlightAware
04:05PM 40.4309 -72.7497 224° Southwest 426 490 36,000  Level FlightAware ADS-B
04:06PM 40.3873 -72.8052 224° Southwest 425 489 36,000  Level FlightAware ADS-B
04:07PM 40.3274 -72.8812 224° Southwest 426 490 36,000  Level FlightAware ADS-B
04:07PM 40.2580 -72.9689 224° Southwest 428 493 36,000  Level FlightAware ADS-B
04:08PM 40.2050 -73.0358 224° Southwest 431 496 36,000  Level FlightAware ADS-B
04:09PM 40.1532 -73.1009 224° Southwest 432 497 36,000  Level FlightAware ADS-B
04:09PM 40.1074 -73.1584 224° Southwest 433 498 36,000  Level FlightAware ADS-B
04:10PM 40.0640 -73.2128 224° Southwest 434 499 36,000  Level FlightAware ADS-B
04:10PM 40.0186 -73.2695 224° Southwest 434 499 36,000  Level FlightAware ADS-B
04:11PM 39.9749 -73.3242 224° Southwest 434 499 36,000  Level FlightAware ADS-B
04:11PM 39.9264 -73.3846 224° Southwest 434 499 36,000  Level FlightAware ADS-B
04:12PM 39.8810 -73.4410 224° Southwest 434 499 36,000  Level FlightAware ADS-B
04:13PM 39.7993 -73.5424 224° Southwest 434 499 36,000  Level FlightAware ADS-B
04:13PM 39.7539 -73.5985 224° Southwest 436 502 36,000  Level FlightAware ADS-B
04:14PM 39.7078 -73.6554 224° Southwest 438 504 36,000  Level FlightAware ADS-B
04:14PM 39.6637 -73.7096 223° Southwest 439 505 36,000  Level FlightAware ADS-B
04:15PM 39.6157 -73.7687 223° Southwest 440 506 36,000  Level FlightAware ADS-B
04:15PM 39.5707 -73.8239 223° Southwest 440 506 36,000  Level FlightAware ADS-B
04:16PM 39.5258 -73.8789 223° Southwest 441 507 36,000  Level FlightAware ADS-B
04:16PM 39.4765 -73.9392 223° Southwest 442 509 36,000  Level FlightAware ADS-B
04:17PM 39.4268 -73.9997 223° Southwest 444 511 36,000  Level FlightAware ADS-B
04:17PM 39.3951 -74.0361 222° Southwest 446 513 36,000  Level FlightAware ADS-B
04:18PM 39.3471 -74.0879 220° Southwest 447 514 36,000  Level FlightAware ADS-B
04:18PM 39.3011 -74.1386 220° Southwest 447 514 36,000  Level FlightAware ADS-B
04:19PM 39.2369 -74.2087 220° Southwest 447 514 36,000  Level FlightAware ADS-B
04:19PM 39.1874 -74.2626 220° Southwest 446 513 36,000  Level FlightAware ADS-B
04:20PM 39.1403 -74.3136 220° Southwest 446 513 36,000  Level FlightAware ADS-B
04:20PM 39.0918 -74.3662 220° Southwest 448 516 36,000  Level FlightAware ADS-B
04:21PM 39.0150 -74.4490 220° Southwest 450 518 36,000  Level FlightAware
04:21PM 38.9937 -74.4720 220° Southwest 451 519 36,000  Level FlightAware ADS-B
04:22PM 38.9450 -74.5245 220° Southwest 452 520 36,000  Level FlightAware ADS-B
04:22PM 38.8942 -74.5791 220° Southwest 450 518 36,000  Level FlightAware ADS-B
04:23PM 38.8340 -74.6440 220° Southwest 445 512 36,000  Level FlightAware
04:24PM 38.7943 -74.6860 220° Southwest 448 516 36,000  Level FlightAware ADS-B
04:24PM 38.7454 -74.7382 220° Southwest 449 517 36,000  Level FlightAware ADS-B
04:25PM 38.6978 -74.7889 220° Southwest 449 517 36,000  Level FlightAware ADS-B
04:25PM 38.6205 -74.8712 220° Southwest 450 518 36,000  Level FlightAware ADS-B
04:26PM 38.5693 -74.9254 220° Southwest 449 517 36,000  Level FlightAware ADS-B
04:26PM 38.5173 -74.9806 220° Southwest 447 514 36,000  Level FlightAware ADS-B
04:27PM 38.4428 -75.0593 220° Southwest 446 513 36,000  Level FlightAware ADS-B
04:28PM 38.3947 -75.1101 220° Southwest 446 513 36,000  Level FlightAware ADS-B
04:28PM 38.3416 -75.1659 220° Southwest 444 511 36,000  Level FlightAware ADS-B
04:29PM 38.2710 -75.2400 219° Southwest 442 509 36,000  Level FlightAware
04:30PM 38.2110 -75.3030 220° Southwest 441 507 36,000  Level FlightAware
04:30PM 38.1350 -75.3830 220° Southwest 439 505 36,000  Level FlightAware
04:31PM 38.0870 -75.4320 219° Southwest 437 503 36,000  Level FlightAware
04:31PM 38.0565 -75.4616 217° Southwest 441 507 36,000  Level FlightAware ADS-B
04:31PM 38.0379 -75.4770 213° Southwest 442 509 36,000  Level FlightAware ADS-B
04:32PM 38.0202 -75.4903 211° Southwest 443 510 36,000  Level FlightAware ADS-B
04:32PM 37.9490 -75.5440 211° Southwest 440 506 36,000  Level FlightAware
04:33PM 37.8750 -75.6010 211° Southwest 440 506 36,000  Level FlightAware
04:33PM 37.8304 -75.6352 211° Southwest 442 509 36,000  Level FlightAware ADS-B
04:34PM 37.7756 -75.6765 211° Southwest 441 507 36,000  Level FlightAware ADS-B
04:34PM 37.7222 -75.7167 211° Southwest 441 507 36,000  Level FlightAware ADS-B
04:35PM 37.6657 -75.7593 211° Southwest 443 510 36,000  Level FlightAware ADS-B
04:36PM 37.6071 -75.8032 211° Southwest 444 511 36,000  Level FlightAware ADS-B
04:36PM 37.5527 -75.8438 211° Southwest 445 512 36,000  Level FlightAware ADS-B
04:37PM 37.4769 -75.8872 204° Southwest 445 512 36,000  Level FlightAware ADS-B
04:37PM 37.4177 -75.9195 203° Southwest 446 513 36,000  Level FlightAware ADS-B
04:38PM 37.3523 -75.9554 204° Southwest 443 510 36,000  Level FlightAware ADS-B
04:38PM 37.2862 -75.9910 203° Southwest 445 512 36,000  Level FlightAware ADS-B
04:39PM 37.2288 -76.0214 203° Southwest 446 513 36,000  Level FlightAware ADS-B
04:39PM 37.1794 -76.0490 204° Southwest 445 512 36,000  Level FlightAware ADS-B
04:40PM 37.1543 -76.0668 209° Southwest 443 510 36,000  Level FlightAware ADS-B
04:40PM 37.1418 -76.0770 213° Southwest 442 509 36,000  Level FlightAware ADS-B
04:40PM 37.1068 -76.1085 216° Southwest 441 507 36,000  Level FlightAware ADS-B
04:40PM 37.0688 -76.1563 225° Southwest 437 503 36,000  Level FlightAware ADS-B
04:41PM 37.0351 -76.2206 237° Southwest 436 502 36,000  Level FlightAware ADS-B
04:41PM 37.0172 -76.2476 230° Southwest 438 504 36,000  Level FlightAware ADS-B
04:42PM 36.9855 -76.2779 217° Southwest 443 510 36,000  Level FlightAware ADS-B
04:42PM 36.9270 -76.3126 205° Southwest 449 517 36,000  Level FlightAware ADS-B
04:43PM 36.8469 -76.3628 207° Southwest 454 522 36,000  Level FlightAware ADS-B
04:43PM 36.7700 -76.4110 207° Southwest 456 525 36,000  Level FlightAware
04:44PM 36.6760 -76.4700 207° Southwest 457 526 36,000  Level FlightAware
04:46PM 36.5290 -76.5620 207° Southwest 454 522 36,000  Level FlightAware
04:46PM 36.4450 -76.6140 206° Southwest 451 519 36,000  Level FlightAware
04:47PM 36.3700 -76.6610 207° Southwest 450 518 36,000  Level FlightAware
04:48PM 36.2860 -76.7120 206° Southwest 451 519 36,000  Level FlightAware
04:48PM 36.2110 -76.7590 207° Southwest 450 518 36,000  Level FlightAware
04:49PM 36.1360 -76.8050 206° Southwest 452 520 36,000  Level FlightAware
04:50PM 36.0620 -76.8500 206° Southwest 453 521 36,000  Level FlightAware
04:50PM 35.9870 -76.8960 206° Southwest 447 514 36,000  Level FlightAware
04:51PM 35.9130 -76.9420 207° Southwest 447 514 36,000  Level FlightAware
04:52PM 35.7980 -77.0120 206° Southwest 454 522 36,000  Level FlightAware
04:53PM 35.7230 -77.0580 206° Southwest 448 516 36,000  Level FlightAware
04:54PM 35.6250 -77.1160 206° Southwest 449 517 36,000  Level FlightAware
04:54PM 35.5680 -77.1510 207° Southwest 449 517 36,000  Level FlightAware
04:55PM 35.4920 -77.1960 206° Southwest 449 517 36,000  Level FlightAware
04:56PM 35.4330 -77.2310 206° Southwest 449 517 36,000  Level FlightAware
04:56PM 35.3740 -77.2670 206° Southwest 449 517 36,000  Level FlightAware
04:57PM 35.2960 -77.3130 206° Southwest 449 517 36,000  Level FlightAware
04:58PM 35.2390 -77.3470 206° Southwest 449 517 36,000  Level FlightAware
04:59PM 35.1630 -77.3930 206° Southwest 449 517 36,000  Level FlightAware
04:59PM 35.1060 -77.4270 206° Southwest 449 517 36,000  Level FlightAware
04:59PM 35.0870 -77.4380 205° Southwest 449 517 36,000  Level FlightAware
05:01PM 34.9870 -77.4980 206° Southwest 449 517 36,000  Level FlightAware
05:01PM 34.9110 -77.5430 206° Southwest 449 517 36,000  Level FlightAware
05:02PM 34.8520 -77.5780 206° Southwest 449 517 36,000  Level FlightAware
05:03PM 34.7790 -77.6210 206° Southwest 449 517 36,000  Level FlightAware
05:07PM 34.0280 -77.9690 201° Southwest 461 531 36,000  Level FlightAware
05:08PM 33.9470 -77.9920 193° South 462 532 36,000  Level FlightAware
05:09PM 33.8610 -78.0170 194° South 464 534 36,000  Level FlightAware
05:09PM 33.7870 -78.0380 193° South 462 532 36,000  Level FlightAware
05:10PM 33.6980 -78.0630 193° South 462 532 36,000  Level FlightAware
05:11PM 33.6350 -78.0810 193° South 462 532 36,000  Level FlightAware
05:11PM 33.5280 -78.1120 194° South 461 531 36,000  Level FlightAware
05:12PM 33.4510 -78.1340 193° South 462 532 36,000  Level FlightAware
05:13PM 33.2990 -78.1770 193° South 464 534 36,000  Level FlightAware
05:14PM 33.2160 -78.2010 194° South 466 536 36,000  Level FlightAware
05:15PM 33.1370 -78.2240 194° South 466 536 36,000  Level FlightAware
05:15PM 33.0460 -78.2490 193° South 465 535 36,000  Level FlightAware
05:16PM 32.9530 -78.2750 193° South 465 535 36,000  Level FlightAware
05:17PM 32.8590 -78.3020 194° South 463 533 36,000  Level FlightAware
05:17PM 32.7820 -78.3230 193° South 462 532 36,000  Level FlightAware
05:18PM 32.6950 -78.3480 194° South 462 532 36,000  Level FlightAware
05:19PM 32.6080 -78.3720 193° South 463 533 36,000  Level FlightAware
05:19PM 32.5350 -78.3920 193° South 464 534 36,000  Level FlightAware
05:20PM 32.4480 -78.4160 193° South 464 534 36,000  Level FlightAware
05:21PM 32.3840 -78.4340 193° South 464 534 36,000  Level FlightAware
05:21PM 32.3180 -78.4520 193° South 464 534 36,000  Level FlightAware
05:22PM 32.2330 -78.4750 193° South 464 534 36,000  Level FlightAware
05:23PM 32.1690 -78.4920 193° South 464 534 36,000  Level FlightAware
05:23PM 32.1030 -78.5100 193° South 464 534 36,000  Level FlightAware
05:24PM 32.0180 -78.5340 193° South 464 534 36,000  Level FlightAware
05:25PM 31.9330 -78.5570 193° South 464 534 36,000  Level FlightAware
05:26PM 31.8690 -78.5740 193° South 464 534 36,000  Level FlightAware
05:26PM 31.8050 -78.5920 193° South 464 534 36,000  Level FlightAware
05:27PM 31.7410 -78.6090 193° South 464 534 36,000  Level FlightAware
05:28PM 31.6520 -78.6330 193° South 464 534 36,000  Level FlightAware
05:28PM 31.5910 -78.6490 193° South 464 534 36,000  Level FlightAware
05:29PM 31.5270 -78.6670 193° South 464 534 36,000  Level FlightAware
05:30PM 31.2617 -78.7467 193° South 467 537 36,000  Level Jacksonville Center
05:31PM 31.1375 -78.7811 193° South 467 537 36,000  Level Jacksonville Center
05:32PM 31.0114 -78.8158 193° South 467 537 36,000  Level Jacksonville Center
05:33PM 30.8992 -78.8400 190° South 467 537 36,000  Level Jacksonville Center
05:34PM 30.7753 -78.8767 194° South 467 537 36,000  Level Jacksonville Center
05:36PM 30.5214 -78.9428 193° South 463 533 36,000  Level Miami Center
05:37PM 30.3981 -78.9742 192° South 463 533 36,000  Level Miami Center
05:38PM 30.2725 -79.0100 194° South 468 539 36,000  Level Miami Center
05:39PM 30.1531 -79.0411 193° South 466 536 36,000  Level Miami Center
05:40PM 30.0233 -79.0744 193° South 466 536 36,000  Level Miami Center
05:41PM 29.8978 -79.1150 196° South 466 536 36,000  Level Miami Center
05:42PM 29.7722 -79.1433 191° South 471 542 36,000  Level Miami Center
05:43PM 29.6422 -79.1764 192° South 471 542 36,000  Level Miami Center
05:44PM 29.5186 -79.2144 195° South 471 542 36,000  Level Miami Center
05:45PM 29.3889 -79.2450 192° South 471 542 36,000  Level Miami Center
05:46PM 29.2589 -79.2731 191° South 471 542 36,000  Level Miami Center
05:47PM 29.1353 -79.3106 195° South 471 542 36,000  Level Miami Center
05:48PM 29.0053 -79.3433 192° South 476 548 36,000  Level Miami Center
05:49PM 28.8775 -79.3736 192° South 476 548 36,000  Level Miami Center
05:50PM 28.7475 -79.4064 192° South 471 542 36,000  Level Miami Center
05:51PM 28.6197 -79.4389 193° South 471 542 36,000  Level Miami Center
05:56PM 27.9530 -79.6080 193° South 469 540 36,000  Level FlightAware
05:56PM 27.8570 -79.6320 192° South 470 541 36,000  Level FlightAware
05:57PM 27.7850 -79.6500 192° South 470 541 36,000  Level FlightAware
05:58PM 27.6850 -79.6760 193° South 471 542 36,000  Level FlightAware
05:58PM 27.6080 -79.6950 192° South 472 543 36,000  Level FlightAware
05:59PM 27.5210 -79.7170 193° South 472 543 36,000  Level FlightAware
06:00PM 27.4240 -79.7410 192° South 472 543 36,000  Level FlightAware
06:01PM 27.3300 -79.7650 193° South 473 544 36,000  Level FlightAware
06:01PM 27.2490 -79.7850 192° South 473 544 36,000  Level FlightAware
06:02PM 27.1550 -79.8090 193° South 472 543 36,000  Level FlightAware
06:03PM 27.0700 -79.8300 192° South 472 543 36,000  Level FlightAware
06:03PM 26.9970 -79.8480 192° South 465 535 36,000  Level FlightAware
06:04PM 26.9090 -79.8700 193° South 475 547 36,000  Level FlightAware
06:05PM 26.8110 -79.8940 192° South 475 547 36,000  Level FlightAware
06:05PM 26.7250 -79.9160 193° South 475 547 36,000  Level FlightAware
06:06PM 26.6270 -79.9400 192° South 475 547 36,000  Level FlightAware
06:07PM 26.5390 -79.9620 193° South 475 547 36,000  Level FlightAware
06:07PM 26.4500 -79.9840 192° South 474 545 36,000  Level FlightAware
06:08PM 26.3590 -80.0060 192° South 473 544 36,000  Level FlightAware
06:09PM 26.2740 -80.0270 192° South 472 543 36,000  Level FlightAware
06:10PM 26.1760 -80.0510 192° South 472 543 36,000  Level FlightAware
06:10PM 26.0900 -80.0720 192° South 473 544 36,000  Level FlightAware
06:11PM 26.0030 -80.0930 192° South 475 547 36,000  Level FlightAware
06:12PM 25.9110 -80.1160 193° South 478 550 36,000  Level FlightAware
06:12PM 25.8360 -80.1380 195° South 480 552 36,000  Level FlightAware
06:13PM 25.7590 -80.1730 202° Southwest 481 554 36,000  Level FlightAware
06:14PM 25.6770 -80.2260 210° Southwest 480 552 36,000  Level FlightAware
06:14PM 25.5960 -80.2980 219° Southwest 478 550 36,000  Level FlightAware
06:15PM 25.5260 -80.3610 219° Southwest 478 550 36,000  Level FlightAware
06:16PM 25.4290 -80.4490 219° Southwest 480 552 36,000  Level FlightAware
06:17PM 25.3600 -80.5120 220° Southwest 482 555 36,000  Level FlightAware
06:17PM 25.3000 -80.5660 219° Southwest 480 552 36,000  Level FlightAware
06:18PM 25.2240 -80.6350 219° Southwest 476 548 36,000  Level FlightAware
06:19PM 25.1540 -80.6980 219° Southwest 468 539 36,000  Level FlightAware
06:19PM 25.0930 -80.7540 220° Southwest 467 537 36,000  Level FlightAware
06:19PM 25.0760 -80.7680 217° Southwest 467 537 36,000  Level FlightAware
06:21PM 24.9630 -80.8700 219° Southwest 476 548 36,000  Level FlightAware
06:21PM 24.8960 -80.9310 220° Southwest 476 548 36,000  Level FlightAware
06:22PM 24.8280 -80.9920 219° Southwest 479 551 36,000  Level FlightAware
06:22PM 24.7840 -81.0320 220° Southwest 473 544 36,000 -480 Level FlightAware
06:24PM 24.6550 -81.1550 221° Southwest 452 520 35,200 -780 Descending FlightAware
06:24PM 24.6020 -81.2050 221° Southwest 453 521 34,600 -1,080 Descending FlightAware
06:25PM 24.5270 -81.2770 221° Southwest 451 519 33,800 -1,020 Descending FlightAware
06:26PM 24.4740 -81.3500 231° Southwest 457 526 33,100 -1,080 Descending FlightAware
06:26PM 24.4410 -81.4320 246° West 454 522 32,400 -1,560 Descending FlightAware
06:27PM 24.4100 -81.5090 246° West 449 517 31,200 -1,980 Descending FlightAware
06:28PM 24.3710 -81.6050 246° West 446 513 29,800 -1,980 Descending FlightAware
06:28PM 24.3410 -81.6800 246° West 440 506 28,700 -1,740 Descending FlightAware
06:29PM 24.3050 -81.7710 247° West 429 494 27,500 -1,740 Descending FlightAware
06:30PM 24.2730 -81.8480 246° West 423 487 26,300 -1,800 Descending FlightAware
06:30PM 24.2440 -81.9220 247° West 419 482 25,200 -1,680 Descending FlightAware
06:31PM 24.2180 -81.9850 246° West 415 478 24,300 -1,680 Descending FlightAware
06:32PM 24.1800 -82.0790 246° West 411 473 22,900 -1,680 Descending FlightAware
06:32PM 24.1520 -82.1470 246° West 402 463 22,000 -480 Descending FlightAware
06:33PM 24.1170 -82.2330 246° West 22,000  Level FlightAware
06:34PM 24.0910 -82.3000 247° West 383 441 22,000  Level FlightAware
06:34PM 24.0700 -82.3540 247° West 383 441 22,000 -1,860 Level FlightAware
06:35PM 24.0220 -82.4680 245° Southwest 382 440 19,200 -1,860 Descending FlightAware
06:36PM 24.0010 -82.5230 247° West 382 440 19,200  Level FlightAware
06:37PM 23.9730 -82.5950 247° West 382 440 19,200  Level FlightAware
06:37PM 23.9520 -82.6500 247° West 382 440 19,200  Level FlightAware
06:38PM 23.9310 -82.7040 247° West 382 440 19,200  Level FlightAware
06:43PM 23.3442 -82.5198 164° South  Level Estimated
06:44PM 23.2176 -82.4802 164° South  Level Estimated
06:45PM 23.0909 -82.4407 164° South  Level Estimated
06:46PM 22.9891 -82.4091 164° South  Level Estimated
06:47PM 22.9891 -82.4091 51° Northeast  Level Estimated
06:48PM 22.9891 -82.4091 51° Northeast  Level Estimated
06:49PM 22.9891 -82.4091 51° Northeast  Level Estimated
06:50PM 22.9891 -82.4091 51° Northeast  Level Estimated
06:51PM 22.9891 -82.4091 51° Northeast  Level Estimated
06:52PM 22.9891 -82.4091 51° Northeast  Level Estimated
06:53PM 22.9891 -82.4091 51° Northeast  Level Estimated
06:54PM 22.9891 -82.4091 51° Northeast  Level Estimated
06:55PM 22.9891 -82.4091 51° Northeast  Level Estimated
06:56PM 22.9891 -82.4091 51° Northeast  Level Estimated
06:57PM 22.9891 -82.4091 51° Northeast  Level Estimated
06:58PM 22.9891 -82.4091 51° Northeast  Level Estimated
06:59PM 22.9891 -82.4091 51° Northeast  Level Estimated
07:00PM 22.9891 -82.4091 51° Northeast  Level Estimated
07:01PM 22.9891 -82.4091 51° Northeast  Level Estimated
07:02PM 22.9891 -82.4091 51° Northeast  Level Estimated
07:03PM 22.9891 -82.4091 51° Northeast  Level Estimated
07:04PM 22.9891 -82.4091 51° Northeast  Level Estimated